Flight Track Log - Related Links

Times and Time Zones

All times are in EDT time to prevent confusion due to time zone crossing. See the LOF3416 flight status page for this flight to view local times or setup timezone preferences in your user account.

Time Position Orientation Groundspeed Altitude Reporting Facility
EDT Latitude Longitude Course Direction KTS MPH feet Rate Location/Type
Fri 10:23:41 PM 38.9333 -77.5500 270° West 184 212 3,000  Level Potomac TRACON
Fri 10:24:41 PM 38.9333 -77.6167 270° West 225 259 4,700 1,950 Climbing Potomac TRACON
Fri 10:25:41 PM 38.9000 -77.7000 243° Southwest 245 282 6,900 2,143 Climbing Potomac TRACON
Fri 10:26:05 PM 38.8942 -77.7414 260° West 246 283 7,700 1,953 Climbing Washington Center
Fri 10:27:07 PM 38.9161 -77.8033 294° West 238 274 9,700 1,967 Climbing Washington Center
Fri 10:28:07 PM 38.9711 -77.8692 317° Northwest 244 281 11,700 1,500 Climbing Washington Center
Fri 10:29:00 PM 38.9500 -78.2341 270° West  Level FlightAware Approximate
Fri 10:29:07 PM 38.9775 -77.9628 275° West 257 296 12,700  Level Washington Center
Fri 10:30:05 PM 38.9714 -78.0694 266° West 280 322 14,200 1,373 Climbing Washington Center
Fri 10:31:05 PM 38.9628 -78.1786 264° West 293 337 15,400 1,200 Climbing Washington Center
Fri 10:32:05 PM 38.9622 -78.2906 270° West 310 357 16,600 1,300 Climbing Washington Center
Fri 10:33:05 PM 38.9661 -78.4003 273° West 310 357 18,000 1,240 Climbing Washington Center
Fri 10:34:06 PM 38.9697 -78.5097 272° West 310 357 19,100 1,438 Climbing Washington Center
Fri 10:35:06 PM 38.9733 -78.6222 272° West 310 357 20,900 1,600 Climbing Washington Center
Fri 10:36:06 PM 38.9769 -78.7264 273° West 310 357 22,300 1,438 Climbing Washington Center
Fri 10:37:07 PM 38.9803 -78.8281 272° West 305 351 23,800 1,311 Climbing Washington Center
Fri 10:38:05 PM 38.9839 -78.9297 273° West 300 345 24,900 1,059 Climbing Washington Center
Fri 10:39:06 PM 38.9869 -79.0367 272° West 295 339 25,900 1,000 Climbing Washington Center
Fri 10:40:05 PM 38.9903 -79.1464 272° West 300 345 26,900 1,008 Climbing Washington Center
Fri 10:41:05 PM 38.9911 -79.2558 271° West 305 351 27,900 545 Climbing Washington Center
Fri 10:42:06 PM 38.9917 -79.3681 270° West 310 357 28,000 50 Climbing Washington Center
Fri 10:43:06 PM 38.9983 -79.4914 274° West 331 381 28,000  Level Washington Center
Fri 10:44:05 PM 38.9978 -79.6275 270° West 360 414 28,000  Level Washington Center
Fri 10:45:06 PM 39.0017 -79.7586 272° West 374 430 28,000  Level Washington Center
Fri 10:46:06 PM 39.0033 -79.8897 271° West 374 430 28,000  Level Washington Center
Fri 10:47:47 PM 39.0047 -80.1019 271° West 371 427 28,000  Level Indianapolis Center
Fri 10:48:48 PM 39.0072 -80.2333 271° West 369 425 28,000  Level Indianapolis Center
Fri 10:49:49 PM 39.0103 -80.3939 271° West 374 430 28,000  Level Indianapolis Center
Fri 10:50:50 PM 39.0206 -80.5236 276° West 371 427 28,000  Level Indianapolis Center
Fri 10:51:51 PM 39.0389 -80.6528 280° West 367 422 28,000  Level Indianapolis Center
Fri 10:52:52 PM 39.0578 -80.7817 281° West 366 421 28,000  Level Indianapolis Center
Fri 10:53:53 PM 39.0756 -80.9089 280° West 365 420 28,000  Level Indianapolis Center
Fri 10:54:54 PM 39.0933 -81.0367 280° West 365 420 28,000  Level Indianapolis Center
Fri 10:55:56 PM 39.1108 -81.1650 280° West 366 421 28,000  Level Indianapolis Center
Fri 10:56:56 PM 39.1269 -81.2914 279° West 360 414 28,000  Level Indianapolis Center
Fri 10:57:58 PM 39.1444 -81.4181 280° West 362 417 28,000  Level Indianapolis Center
Fri 10:58:59 PM 39.1614 -81.5444 280° West 362 417 28,000 -98 Level Indianapolis Center
Fri 11:00:00 PM 39.1806 -81.6967 279° West 361 415 27,800 -885 Descending Indianapolis Center
Fri 11:01:01 PM 39.1975 -81.8231 280° West 361 415 26,200 -1,525 Descending Indianapolis Center
Fri 11:02:02 PM 39.2144 -81.9550 279° West 368 423 24,700 -1,475 Descending Indianapolis Center
Fri 11:03:03 PM 39.2322 -82.0967 279° West 393 452 23,200 -1,475 Descending Indianapolis Center
Fri 11:04:04 PM 39.2500 -82.2353 279° West 393 452 21,700 -1,377 Descending Indianapolis Center
Fri 11:05:05 PM 39.2664 -82.3700 279° West 385 443 20,400 -1,328 Descending Indianapolis Center
Fri 11:06:06 PM 39.2847 -82.5144 279° West 377 434 19,000 -1,279 Descending Indianapolis Center
Fri 11:07:07 PM 39.3022 -82.6494 280° West 377 434 17,800 -1,024 Descending Indianapolis Center
Fri 11:08:09 PM 39.3172 -82.7842 278° West 376 433 16,900 -1,024 Descending Indianapolis Center
Fri 11:09:10 PM 39.3328 -82.9153 279° West 369 425 15,700 -1,230 Descending Indianapolis Center
Fri 11:10:11 PM 39.3481 -83.0472 279° West 368 423 14,400 -1,152 Descending Indianapolis Center
Fri 11:10:49 PM 39.3572 -83.1311 278° West 368 423 13,800 -1,082 Descending Indianapolis Center
Fri 11:11:12 PM 39.3642 -83.1794 281° West 367 422 13,300 -1,164 Descending Indianapolis Center
Fri 11:11:56 PM 39.3758 -83.2817 278° West 361 415 12,500 -984 Descending Indianapolis Center
Fri 11:12:13 PM 39.3792 -83.3097 279° West 363 418 12,300 -1,000 Descending Indianapolis Center
Fri 11:12:56 PM 39.3900 -83.4075 278° West 356 410 11,500 -1,082 Descending Indianapolis Center
Fri 11:13:14 PM 39.4019 -83.4347 300° West 365 420 11,200 -689 Descending Indianapolis Center
Fri 11:13:57 PM 39.4633 -83.4947 323° Northwest 367 422 10,800 -689 Descending Indianapolis Center
Fri 11:14:15 PM 39.4831 -83.5125 325° Northwest 363 418 10,500 -800 Descending Indianapolis Center
Fri 11:14:57 PM 39.5417 -83.5664 325° Northwest 353 406 10,000 -590 Descending Indianapolis Center
Fri 11:15:16 PM 39.5625 -83.5861 324° Northwest 352 405 9,900  Descending Indianapolis Center
Fri 11:15:58 PM 39.6181 -83.6381 324° Northwest 341 392 10,000  Climbing Indianapolis Center
Fri 11:16:17 PM 39.6408 -83.6594 324° Northwest 343 395 9,900  Descending Indianapolis Center
Fri 11:16:59 PM 39.6944 -83.7100 324° Northwest 343 395 10,000  Climbing Indianapolis Center
Fri 11:17:18 PM 39.7197 -83.7317 327° Northwest 341 392 9,900 -778 Descending Indianapolis Center
Fri 11:17:53 PM 39.7572 -83.7667 324° Northwest 287 330 9,300 -1,475 Descending Indianapolis Center
Fri 11:18:19 PM 39.7831 -83.7917 323° Northwest 279 321 8,400 -2,164 Descending Indianapolis Center
Fri 11:18:54 PM 39.8181 -83.8233 325° Northwest 268 308 7,100 -2,262 Descending Indianapolis Center
Fri 11:19:20 PM 39.8403 -83.8542 313° West 275 316 6,100 -2,073 Descending Indianapolis Center
Fri 11:19:49 PM 39.8608 -83.8914 306° West 268 308 5,200 -1,869 Descending Indianapolis Center
Fri 11:20:21 PM 39.8831 -83.9306 306° West 264 304 4,200 -1,279 Descending Indianapolis Center
Fri 11:20:50 PM 39.9017 -83.9617 308° West 247 284 3,900 -393 Descending Indianapolis Center
Fri 11:21:22 PM 39.9256 -84.0017 308° West 254 292 3,800 -333 Descending Indianapolis Center
Fri 11:22:02 PM 39.9494 -84.0497 303° West 234 269 3,500 -492 Descending Indianapolis Center
Fri 11:22:23 PM 39.9594 -84.0753 297° West 243 280 3,300 -571 Descending Indianapolis Center

Login

Don't have an account? Register now (free) for customized features, flight alerts, and more!